Terminal Aerodrome Forecast
Issued by NWS Upton, NY

Home | Current Version | Previous Version | Text Only | Print | Product List | Glossary On
Versions: 1 2 3 4 5 6 7 8 9 10 11 12 13 14 15 16 17 18 19 20 21 22 23 24 25 26 27 28 29 30 31 32 33 34 35 36 37 38 39
537
FTUS41 KOKX 211741
TAFEWR
TAF
KEWR 211741Z 2118/2224 25008KT 6SM BR BKN006
      TEMPO 2118/2120 SCT006 BKN012
     FM212000 23007KT 6SM BR SCT006 BKN012
     FM220000 VRB03KT 5SM BR SCT004 BKN008
      TEMPO 2200/2204 2SM BR OVC004
     FM220400 VRB02KT 1/2SM FG OVC004
     FM221500 06005KT 4SM BR OVC006=

USA.gov is the U.S. government's official web portal to all federal, state and local government web resources and services.